Time;durP1;ratioP1;P1;durP2;ratioP2;P2;SDS_P1;SDS_P2;PMS_P1;PMS_P2;Temp;Humidity;BMP_temperature;BMP_pressure;BME280_temperature;BME280_humidity;BME280_pressure;Samples;Min_cycle;Max_cycle;Signal;HPM_P1;HPM_P2
2022/08/19 00:00:39;;;;;;;14.63;10.30;;;23.40;62.20;;;;;;5121576;28;20668;-95
2022/08/19 00:03:08;;;;;;;11.77;9.70;;;23.30;62.30;;;;;;5123571;28;20200;-96
2022/08/19 00:05:36;;;;;;;16.70;10.53;;;23.30;62.40;;;;;;5119765;28;20293;-96
2022/08/19 00:08:10;;;;;;;13.67;9.73;;;23.30;62.70;;;;;;5103557;28;20198;-96
2022/08/19 00:10:37;;;;;;;18.00;11.23;;;23.20;63.20;;;;;;5124542;28;20197;-96
2022/08/19 00:13:18;;;;;;;18.20;11.30;;;23.20;62.80;;;;;;5120598;28;20221;-96
2022/08/19 00:15:48;;;;;;;21.37;12.47;;;23.20;63.60;;;;;;5135315;28;20203;-95
2022/08/19 00:18:22;;;;;;;14.07;10.43;;;23.10;63.30;;;;;;5127547;28;20193;-95
2022/08/19 00:20:52;;;;;;;13.57;10.07;;;23.10;63.90;;;;;;5115251;28;20194;-96
2022/08/19 00:23:34;;;;;;;12.20;10.03;;;23.00;63.50;;;;;;5128998;28;20255;-95
2022/08/19 00:28:52;;;;;;;14.67;10.23;;;22.90;64.00;;;;;;5107440;28;20206;-96
2022/08/19 00:31:25;;;;;;;17.13;11.37;;;23.00;63.80;;;;;;5121909;28;20882;-96
2022/08/19 00:33:53;;;;;;;16.87;10.33;;;22.90;63.90;;;;;;5124545;28;20208;-96
2022/08/19 00:36:25;;;;;;;14.87;10.00;;;22.90;63.80;;;;;;5121322;28;20209;-96
2022/08/19 00:39:02;;;;;;;15.73;10.40;;;22.90;64.10;;;;;;5119993;28;20207;-96
2022/08/19 00:41:32;;;;;;;15.47;10.47;;;22.90;64.40;;;;;;5125750;28;20199;-96
2022/08/19 00:44:06;;;;;;;17.43;10.27;;;22.80;64.00;;;;;;5124838;28;20202;-92
2022/08/19 00:47:15;;;;;;;14.20;10.17;;;22.80;64.10;;;;;;5111632;28;20246;-96
2022/08/19 00:49:50;;;;;;;16.33;10.27;;;22.80;64.90;;;;;;5119861;28;20190;-96
2022/08/19 00:52:24;;;;;;;17.67;10.90;;;22.70;64.30;;;;;;5126606;28;20182;-96
2022/08/19 00:55:00;;;;;;;17.67;10.13;;;22.70;64.40;;;;;;5133741;28;20197;-95
2022/08/19 00:57:38;;;;;;;18.40;10.00;;;22.60;64.80;;;;;;5124473;28;20190;-93
2022/08/19 01:00:10;;;;;;;17.60;11.40;;;22.60;64.70;;;;;;5133157;28;20254;-95
2022/08/19 01:02:37;;;;;;;16.80;10.57;;;22.60;64.80;;;;;;5118504;28;20202;-92
2022/08/19 01:05:10;;;;;;;10.37;9.20;;;22.60;64.90;;;;;;5123400;28;20249;-94
2022/08/19 01:07:52;;;;;;;16.50;10.13;;;22.60;65.40;;;;;;5117131;28;20202;-96
2022/08/19 01:10:49;;;;;;;19.00;11.50;;;22.50;65.50;;;;;;5114365;28;20578;-96
2022/08/19 01:13:20;;;;;;;16.13;10.27;;;22.50;66.20;;;;;;5119864;28;20222;-94
2022/08/19 01:15:53;;;;;;;15.97;10.37;;;22.50;65.60;;;;;;5113740;28;20194;-96
2022/08/19 01:18:26;;;;;;;18.80;10.97;;;22.50;65.60;;;;;;5103163;28;20199;-95
2022/08/19 01:21:00;;;;;;;13.50;9.43;;;22.50;65.60;;;;;;5113859;28;21372;-96
2022/08/19 01:23:43;;;;;;;15.10;10.30;;;22.40;66.20;;;;;;5121099;28;20210;-93
2022/08/19 01:26:14;;;;;;;20.17;11.83;;;22.40;66.00;;;;;;5105680;28;20628;-96
2022/08/19 01:28:44;;;;;;;14.00;10.17;;;22.40;65.70;;;;;;5112172;28;20772;-96
2022/08/19 01:31:15;;;;;;;18.30;11.37;;;22.40;65.80;;;;;;5119940;28;20198;-96
2022/08/19 01:33:44;;;;;;;19.67;11.97;;;22.30;65.90;;;;;;5116591;28;20229;-94
2022/08/19 01:36:15;;;;;;;18.33;11.40;;;22.30;65.90;;;;;;5119884;28;20208;-96
2022/08/19 01:38:45;;;;;;;14.67;10.60;;;22.30;66.10;;;;;;5118270;28;20221;-93
2022/08/19 01:41:19;;;;;;;17.30;10.73;;;22.20;66.20;;;;;;5103870;28;20204;-95
2022/08/19 01:43:50;;;;;;;18.03;11.20;;;22.20;66.90;;;;;;5118740;28;20229;-92
2022/08/19 01:46:17;;;;;;;23.10;12.03;;;22.20;66.30;;;;;;5116483;28;20226;-93
2022/08/19 01:48:51;;;;;;;23.33;12.17;;;22.10;66.20;;;;;;5111750;28;20268;-94
2022/08/19 01:51:18;;;;;;;22.83;11.87;;;22.10;66.70;;;;;;5113336;28;20255;-92
2022/08/19 01:53:53;;;;;;;19.77;11.83;;;22.00;66.30;;;;;;5116699;28;20205;-93
2022/08/19 01:56:22;;;;;;;16.07;10.10;;;22.00;67.30;;;;;;5116599;28;20206;-95
2022/08/19 01:58:54;;;;;;;18.90;10.87;;;22.00;66.90;;;;;;5114475;28;20624;-93
2022/08/19 02:01:21;;;;;;;17.87;11.60;;;22.00;67.20;;;;;;5109712;28;20206;-93
2022/08/19 02:03:48;;;;;;;24.33;12.60;;;22.00;67.20;;;;;;5118001;28;20213;-95
2022/08/19 02:06:17;;;;;;;22.50;11.90;;;21.90;67.20;;;;;;5128728;28;20199;-94
2022/08/19 02:08:56;;;;;;;20.50;10.73;;;21.90;67.30;;;;;;5115347;28;20190;-95
2022/08/19 02:11:26;;;;;;;17.23;10.07;;;21.90;67.80;;;;;;5115501;28;20231;-95
2022/08/19 02:13:54;;;;;;;12.43;9.23;;;21.90;67.80;;;;;;5117856;28;20204;-94
2022/08/19 02:16:23;;;;;;;18.90;10.30;;;21.80;67.60;;;;;;5116702;28;20237;-96
2022/08/19 02:18:53;;;;;;;15.67;9.53;;;21.80;67.70;;;;;;5104315;28;20229;-95
2022/08/19 02:21:25;;;;;;;17.13;10.83;;;21.80;68.00;;;;;;5121515;28;20209;-93
2022/08/19 02:23:56;;;;;;;18.67;11.17;;;21.80;67.70;;;;;;5113452;28;20207;-93
2022/08/19 02:26:23;;;;;;;17.10;9.77;;;21.70;68.20;;;;;;5110968;28;20226;-92
2022/08/19 02:28:51;;;;;;;21.73;10.33;;;21.70;68.10;;;;;;5102138;28;20255;-93
2022/08/19 02:31:25;;;;;;;16.97;10.27;;;21.70;68.20;;;;;;5105142;28;20655;-92
2022/08/19 02:33:55;;;;;;;20.13;10.47;;;21.70;69.70;;;;;;5114824;28;20244;-92
2022/08/19 02:36:30;;;;;;;14.47;8.97;;;21.70;68.60;;;;;;5117197;28;20231;-96
2022/08/19 02:39:14;;;;;;;19.53;11.40;;;21.60;69.20;;;;;;5120823;28;20211;-96
2022/08/19 02:41:42;;;;;;;14.67;9.23;;;21.60;69.80;;;;;;5117344;28;20233;-96
2022/08/19 02:44:09;;;;;;;13.40;8.83;;;21.60;69.00;;;;;;5119677;28;20200;-94
2022/08/19 02:46:36;;;;;;;15.10;9.57;;;21.60;69.20;;;;;;5111357;28;20223;-96
2022/08/19 02:49:08;;;;;;;14.57;9.73;;;21.60;69.40;;;;;;5116431;28;20605;-93
2022/08/19 02:51:38;;;;;;;24.80;11.73;;;21.50;69.90;;;;;;5117441;28;20202;-95
2022/08/19 02:54:06;;;;;;;16.63;10.23;;;21.60;69.80;;;;;;5116843;28;20201;-95
2022/08/19 02:56:37;;;;;;;17.63;9.97;;;21.60;69.70;;;;;;5118658;28;20222;-95
2022/08/19 02:59:11;;;;;;;19.83;9.53;;;21.50;70.20;;;;;;5123011;28;20217;-93
2022/08/19 03:01:41;;;;;;;23.17;9.63;;;21.50;69.80;;;;;;5104600;28;20234;-95
2022/08/19 03:04:10;;;;;;;17.67;9.63;;;21.50;70.20;;;;;;5120968;28;20222;-96
2022/08/19 03:06:41;;;;;;;16.00;9.43;;;21.50;70.20;;;;;;5120795;28;20230;-95
2022/08/19 03:09:14;;;;;;;21.07;10.60;;;21.50;70.20;;;;;;5120363;28;20221;-95
2022/08/19 03:11:46;;;;;;;16.43;10.17;;;21.40;70.70;;;;;;5100842;28;20202;-93
2022/08/19 03:14:14;;;;;;;14.30;8.87;;;21.50;70.80;;;;;;5098562;28;20285;-95
2022/08/19 03:16:46;;;;;;;13.17;9.10;;;21.50;70.70;;;;;;5098601;28;20241;-95
2022/08/19 03:21:55;;;;;;;13.23;8.73;;;21.40;71.00;;;;;;5103871;28;20237;-95
2022/08/19 03:24:23;;;;;;;17.33;9.17;;;21.40;71.00;;;;;;5131561;28;20203;-96
2022/08/19 03:27:14;;;;;;;15.43;8.80;;;21.40;71.40;;;;;;5131587;28;20202;-92
2022/08/19 03:29:59;;;;;;;13.67;8.40;;;21.40;72.10;;;;;;5126187;28;20221;-94
2022/08/19 03:32:36;;;;;;;14.80;8.20;;;21.40;72.40;;;;;;5133881;28;20194;-96
2022/08/19 03:35:10;;;;;;;13.53;8.17;;;21.40;71.90;;;;;;5120366;28;20206;-96
2022/08/19 03:38:15;;;;;;;12.13;7.87;;;21.50;72.10;;;;;;5136615;28;20192;-96
2022/08/19 03:40:47;;;;;;;17.63;9.17;;;21.50;72.50;;;;;;5132708;28;20258;-96
2022/08/19 03:46:33;;;;;;;14.43;9.07;;;21.50;73.00;;;;;;5138191;28;20206;-96
2022/08/19 03:49:09;;;;;;;14.07;8.17;;;21.50;72.90;;;;;;5138331;28;20200;-96
2022/08/19 03:51:56;;;;;;;11.73;7.67;;;21.50;72.80;;;;;;5134169;28;20201;-96
2022/08/19 03:57:57;;;;;;;9.60;6.93;;;21.50;73.00;;;;;;5135287;28;20256;-95
2022/08/19 04:03:47;;;;;;;14.27;7.37;;;21.50;73.20;;;;;;5130020;28;20202;-96
2022/08/19 04:06:21;;;;;;;11.97;8.27;;;21.50;73.10;;;;;;5134563;28;20255;-96
2022/08/19 04:08:57;;;;;;;12.77;7.63;;;21.50;73.00;;;;;;5136114;28;20190;-93
2022/08/19 04:11:41;;;;;;;17.07;7.87;;;21.50;73.40;;;;;;5134443;28;20194;-95
2022/08/19 04:14:17;;;;;;;12.07;7.40;;;21.50;74.00;;;;;;5125538;28;20224;-95
2022/08/19 04:16:55;;;;;;;13.87;6.80;;;21.50;74.20;;;;;;5116322;28;20254;-96
2022/08/19 04:19:26;;;;;;;15.07;7.77;;;21.50;74.10;;;;;;5097275;28;20265;-96
2022/08/19 04:22:01;;;;;;;13.53;7.27;;;21.50;73.50;;;;;;5134159;28;20258;-96
2022/08/19 04:24:32;;;;;;;18.43;8.40;;;21.50;74.10;;;;;;5131610;28;20204;-96
2022/08/19 04:27:07;;;;;;;9.23;6.17;;;21.50;74.40;;;;;;5124310;28;20275;-96
2022/08/19 04:29:39;;;;;;;8.17;5.47;;;21.50;74.90;;;;;;5125231;28;20233;-96
2022/08/19 04:32:14;;;;;;;10.67;5.83;;;21.50;74.50;;;;;;5123932;28;20653;-96
2022/08/19 04:34:56;;;;;;;16.20;7.03;;;21.50;75.30;;;;;;5120566;28;20284;-96
2022/08/19 04:37:32;;;;;;;14.53;6.23;;;21.50;75.20;;;;;;5106654;28;20202;-96
2022/08/19 04:45:51;;;;;;;16.13;7.13;;;21.60;76.10;;;;;;5135169;28;20190;-96
2022/08/19 04:48:34;;;;;;;12.10;6.53;;;21.60;75.90;;;;;;5133483;28;20202;-96
2022/08/19 04:51:13;;;;;;;11.00;6.83;;;21.60;76.70;;;;;;5117426;28;20201;-96
2022/08/19 04:53:42;;;;;;;12.70;6.03;;;21.70;77.30;;;;;;5122636;28;20202;-95
2022/08/19 04:59:05;;;;;;;12.50;6.53;;;21.70;78.00;;;;;;5124791;28;20736;-96
2022/08/19 05:01:57;;;;;;;11.90;5.63;;;21.70;78.80;;;;;;5133078;28;20215;-91
2022/08/19 05:04:40;;;;;;;10.53;5.47;;;21.70;79.80;;;;;;5127885;28;20243;-92
2022/08/19 05:07:52;;;;;;;10.43;5.80;;;21.80;79.70;;;;;;5136268;28;20209;-91
2022/08/19 05:10:39;;;;;;;11.30;6.70;;;21.80;80.50;;;;;;5132414;28;20189;-92
2022/08/19 05:13:21;;;;;;;15.37;6.47;;;21.80;80.90;;;;;;5118498;28;20172;-92
2022/08/19 05:16:00;;;;;;;11.43;5.87;;;21.80;81.50;;;;;;5126876;28;20183;-93
2022/08/19 05:25:25;;;;;;;7.83;4.77;;;21.90;83.40;;;;;;5116516;28;20193;-96
2022/08/19 05:28:08;;;;;;;7.57;4.60;;;22.00;84.10;;;;;;5123064;28;20281;-91
2022/08/19 05:36:51;;;;;;;11.97;6.23;;;22.10;83.00;;;;;;5115597;28;20207;-92
2022/08/19 05:39:43;;;;;;;10.87;5.90;;;22.10;85.50;;;;;;5135725;28;20194;-94
2022/08/19 05:42:14;;;;;;;9.53;4.67;;;22.20;85.60;;;;;;5130587;28;20205;-93
2022/08/19 05:47:44;;;;;;;8.63;5.17;;;22.30;85.50;;;;;;5120187;28;20226;-92
2022/08/19 05:50:14;;;;;;;10.40;5.27;;;22.30;86.30;;;;;;5122796;28;20198;-91
2022/08/19 05:56:21;;;;;;;12.70;5.70;;;22.40;86.20;;;;;;5030417;28;20305;-91
2022/08/19 06:02:07;;;;;;;7.87;4.97;;;22.40;85.80;;;;;;5052340;28;20207;-91
2022/08/19 06:04:43;;;;;;;9.43;5.43;;;22.50;86.60;;;;;;5065111;28;20222;-92
2022/08/19 06:07:13;;;;;;;15.60;6.87;;;22.50;87.20;;;;;;5055443;28;20217;-93
2022/08/19 06:09:42;;;;;;;12.77;6.10;;;22.60;86.80;;;;;;5070923;28;20186;-93
2022/08/19 06:12:12;;;;;;;9.57;4.87;;;22.60;87.00;;;;;;5037246;28;20189;-94
2022/08/19 06:14:45;;;;;;;9.43;5.13;;;22.70;87.70;;;;;;5054222;28;20209;-93
2022/08/19 06:17:24;;;;;;;8.90;5.17;;;22.80;87.70;;;;;;5056972;28;20202;-92
2022/08/19 06:19:55;;;;;;;6.90;4.40;;;22.70;86.70;;;;;;5068581;28;20192;-90
2022/08/19 06:22:26;;;;;;;9.87;5.60;;;22.80;87.70;;;;;;5057435;28;20201;-94
2022/08/19 06:25:09;;;;;;;7.50;4.10;;;22.90;87.60;;;;;;5072967;28;20193;-93
2022/08/19 06:28:01;;;;;;;12.00;5.23;;;22.90;88.30;;;;;;5056081;28;20299;-92
2022/08/19 06:30:56;;;;;;;13.77;5.77;;;23.00;88.50;;;;;;5057603;28;20231;-92
2022/08/19 06:34:09;;;;;;;15.70;6.37;;;23.00;88.40;;;;;;5059904;28;20207;-92
2022/08/19 06:36:43;;;;;;;10.17;5.13;;;23.10;88.30;;;;;;5068002;28;20239;-95
2022/08/19 06:39:13;;;;;;;11.13;5.17;;;23.10;87.30;;;;;;5070140;28;20244;-93
2022/08/19 06:42:11;;;;;;;12.23;5.27;;;23.20;86.90;;;;;;5059434;28;20214;-93
2022/08/19 06:44:48;;;;;;;11.43;5.53;;;23.20;88.00;;;;;;5058592;28;20216;-92
2022/08/19 06:47:21;;;;;;;11.20;5.33;;;23.20;87.70;;;;;;5057851;28;20212;-94
2022/08/19 06:49:48;;;;;;;7.47;5.30;;;23.30;86.70;;;;;;5052636;28;20208;-92
2022/08/19 06:52:21;;;;;;;11.73;5.67;;;23.30;86.40;;;;;;5066704;28;20219;-93
2022/08/19 06:55:00;;;;;;;10.07;5.07;;;23.30;87.40;;;;;;5057097;28;20207;-93
2022/08/19 06:57:36;;;;;;;9.23;4.57;;;23.40;86.90;;;;;;5048412;28;20208;-94
2022/08/19 07:00:11;;;;;;;13.33;5.17;;;23.40;87.60;;;;;;5054022;28;20265;-92
2022/08/19 07:02:49;;;;;;;10.97;4.87;;;23.40;87.50;;;;;;5044644;28;20222;-92
2022/08/19 07:05:20;;;;;;;8.77;3.83;;;23.50;86.80;;;;;;5041262;28;20224;-92
2022/08/19 07:07:50;;;;;;;9.53;4.37;;;23.40;87.00;;;;;;5029974;28;20239;-92
2022/08/19 07:13:03;;;;;;;10.10;4.83;;;23.50;87.00;;;;;;5042708;28;20254;-93
2022/08/19 07:15:53;;;;;;;6.07;3.67;;;23.50;86.70;;;;;;5043488;28;20745;-92
2022/08/19 07:18:22;;;;;;;8.87;3.87;;;23.60;87.30;;;;;;5035610;28;20228;-95
2022/08/19 07:20:53;;;;;;;9.60;4.60;;;23.60;86.30;;;;;;5033946;28;20255;-92
2022/08/19 07:23:29;;;;;;;12.30;4.80;;;23.60;86.30;;;;;;5043318;28;20235;-93
2022/08/19 07:26:11;;;;;;;8.00;4.20;;;23.60;86.40;;;;;;5041811;28;20207;-94
2022/08/19 07:28:52;;;;;;;6.87;3.47;;;23.60;86.40;;;;;;5038891;28;20327;-92
2022/08/19 07:34:15;;;;;;;12.40;4.97;;;23.70;86.40;;;;;;5036973;28;20247;-94
2022/08/19 07:36:44;;;;;;;9.67;4.30;;;23.80;85.20;;;;;;5046725;28;20210;-92
2022/08/19 07:45:17;;;;;;;11.10;5.03;;;23.90;85.90;;;;;;5037954;28;20212;-96
2022/08/19 07:51:33;;;;;;;6.70;4.27;;;23.90;86.00;;;;;;5133219;22;20250;-96
2022/08/19 08:09:27;;;;;;;10.03;6.17;;;24.00;86.20;;;;;;5046882;28;20237;-95
2022/08/19 08:12:28;;;;;;;9.67;6.43;;;24.10;85.60;;;;;;5045402;28;20244;-94
2022/08/19 08:14:58;;;;;;;9.10;6.27;;;24.10;86.40;;;;;;5038439;28;20208;-94
2022/08/19 08:17:40;;;;;;;10.93;7.10;;;24.10;85.80;;;;;;5039633;28;20191;-96
2022/08/19 08:28:00;;;;;;;21.67;10.90;;;24.30;85.00;;;;;;5077395;23;20280;-96
2022/08/19 08:30:29;;;;;;;13.30;8.03;;;24.30;85.30;;;;;;5035565;28;20220;-94
2022/08/19 08:33:00;;;;;;;11.23;7.27;;;24.30;85.00;;;;;;5035312;28;20202;-95
2022/08/19 08:35:27;;;;;;;13.13;8.17;;;24.40;84.90;;;;;;5034007;28;20201;-94
2022/08/19 08:37:59;;;;;;;13.00;7.63;;;24.40;84.40;;;;;;5038740;28;20223;-96
2022/08/19 08:40:39;;;;;;;14.30;8.03;;;24.40;84.70;;;;;;5036001;28;20534;-95
2022/08/19 08:43:26;;;;;;;11.90;7.40;;;24.40;85.00;;;;;;5037806;28;20204;-94
2022/08/19 08:46:00;;;;;;;7.20;6.20;;;24.50;85.20;;;;;;5038883;28;20702;-94
2022/08/19 08:48:36;;;;;;;15.10;8.57;;;24.50;84.70;;;;;;5044499;28;20254;-96
2022/08/19 08:51:11;;;;;;;8.77;6.10;;;24.50;84.40;;;;;;5052849;28;20197;-95
2022/08/19 08:53:40;;;;;;;10.10;6.80;;;24.50;84.70;;;;;;5048917;28;20199;-96
2022/08/19 08:56:12;;;;;;;8.10;7.30;;;24.60;84.20;;;;;;5035157;28;20592;-94
2022/08/19 08:58:51;;;;;;;9.87;6.87;;;24.60;85.00;;;;;;5040452;28;20238;-94
2022/08/19 09:01:19;;;;;;;12.87;7.30;;;24.70;83.80;;;;;;5043898;28;20196;-93
2022/08/19 09:03:52;;;;;;;9.97;6.50;;;24.70;83.60;;;;;;5021320;28;20221;-94
2022/08/19 09:06:30;;;;;;;8.27;5.83;;;24.80;83.30;;;;;;5021613;28;20208;-94
2022/08/19 09:12:11;;;;;;;11.43;6.13;;;24.80;83.20;;;;;;5224904;22;20225;-94
2022/08/19 09:15:32;;;;;;;10.57;6.43;;;24.90;83.20;;;;;;5054942;28;20264;-93
2022/08/19 09:18:03;;;;;;;10.30;4.67;;;25.00;82.40;;;;;;5050668;28;20207;-95
2022/08/19 09:20:36;;;;;;;7.40;4.20;;;25.00;82.20;;;;;;5050966;28;20211;-94
2022/08/19 09:23:07;;;;;;;5.53;3.90;;;25.00;81.80;;;;;;5040725;28;20193;-94
2022/08/19 09:25:39;;;;;;;5.30;4.10;;;25.10;82.20;;;;;;5043590;28;20204;-96
2022/08/19 09:28:13;;;;;;;3.87;3.47;;;25.10;81.90;;;;;;5044195;28;20235;-94
2022/08/19 09:30:48;;;;;;;6.20;4.53;;;25.20;81.70;;;;;;5043578;28;20220;-95
2022/08/19 09:33:18;;;;;;;6.03;4.27;;;25.20;81.20;;;;;;5103106;22;20224;-94
2022/08/19 09:35:49;;;;;;;8.73;5.33;;;25.30;81.10;;;;;;5040990;28;20221;-95
2022/08/19 09:38:17;;;;;;;7.83;6.07;;;25.30;81.00;;;;;;5040432;28;20228;-95
2022/08/19 09:40:45;;;;;;;8.83;5.33;;;25.30;80.40;;;;;;5035308;28;20212;-95
2022/08/19 09:43:12;;;;;;;6.37;5.30;;;25.30;80.40;;;;;;5037000;28;20204;-95
2022/08/19 09:45:40;;;;;;;8.97;6.17;;;25.30;80.40;;;;;;5038203;28;20209;-94
2022/08/19 09:48:07;;;;;;;7.90;5.67;;;25.30;80.40;;;;;;5038090;28;20318;-93
2022/08/19 09:50:43;;;;;;;7.53;6.20;;;25.30;80.00;;;;;;5036514;28;20226;-94
2022/08/19 09:53:15;;;;;;;7.40;5.70;;;25.40;79.90;;;;;;5037118;28;20201;-93
2022/08/19 09:55:44;;;;;;;14.17;8.83;;;25.40;80.00;;;;;;5025110;28;20213;-93
2022/08/19 09:58:12;;;;;;;10.83;8.67;;;25.40;79.70;;;;;;5033274;28;20196;-95
2022/08/19 10:00:40;;;;;;;15.43;10.03;;;25.40;79.50;;;;;;5038053;28;20274;-93
2022/08/19 10:03:08;;;;;;;13.90;9.93;;;25.40;79.00;;;;;;5033714;28;20232;-94
2022/08/19 10:05:50;;;;;;;16.27;9.00;;;25.50;78.90;;;;;;5036466;28;20637;-96
2022/08/19 10:08:23;;;;;;;8.50;7.00;;;25.50;78.60;;;;;;5037296;28;20287;-94
2022/08/19 10:10:52;;;;;;;10.50;7.87;;;25.50;78.30;;;;;;5018771;28;20226;-95
2022/08/19 10:13:24;;;;;;;11.97;8.37;;;25.50;78.40;;;;;;5004543;28;20212;-95
2022/08/19 10:18:39;;;;;;;13.80;10.43;;;25.50;78.00;;;;;;5016983;28;20225;-95
2022/08/19 10:21:09;;;;;;;14.83;9.93;;;25.50;78.00;;;;;;5018255;28;20206;-94
2022/08/19 10:23:54;;;;;;;11.80;9.73;;;25.50;78.30;;;;;;5019819;28;20205;-95
2022/08/19 10:26:24;;;;;;;12.73;8.83;;;25.60;78.20;;;;;;5021562;28;20227;-93
2022/08/19 10:28:52;;;;;;;8.47;7.20;;;25.60;78.00;;;;;;5015175;28;20236;-94
2022/08/19 10:31:21;;;;;;;11.47;7.83;;;25.60;77.40;;;;;;5017432;28;21052;-96
2022/08/19 10:33:48;;;;;;;12.73;8.60;;;25.60;77.30;;;;;;5018604;28;20279;-95
2022/08/19 10:36:19;;;;;;;11.37;7.70;;;25.70;77.10;;;;;;5017787;28;20229;-96
2022/08/19 10:38:51;;;;;;;10.53;8.07;;;25.70;76.90;;;;;;5017449;28;20247;-95
2022/08/19 10:41:27;;;;;;;10.90;8.10;;;25.70;76.60;;;;;;5019035;28;20194;-95
2022/08/19 10:43:56;;;;;;;10.97;7.03;;;25.70;76.30;;;;;;5019169;28;20208;-95
2022/08/19 10:46:29;;;;;;;11.07;7.10;;;25.70;76.80;;;;;;5017971;28;20958;-95
2022/08/19 10:49:04;;;;;;;7.90;5.33;;;25.70;76.90;;;;;;5019118;28;20237;-95
2022/08/19 10:54:20;;;;;;;5.93;3.70;;;25.80;77.50;;;;;;5002167;28;20257;-95
2022/08/19 10:56:56;;;;;;;5.67;3.87;;;25.90;77.40;;;;;;4997567;28;20285;-95
2022/08/19 10:59:30;;;;;;;5.33;3.33;;;26.00;76.90;;;;;;5013107;28;20208;-94
2022/08/19 11:02:05;;;;;;;7.93;4.70;;;26.10;76.50;;;;;;5023400;28;20191;-96
2022/08/19 11:04:43;;;;;;;8.20;6.40;;;26.10;76.20;;;;;;5034137;28;20215;-94
2022/08/19 11:07:18;;;;;;;10.27;8.50;;;26.20;75.00;;;;;;5026881;28;20299;-95
2022/08/19 11:09:58;;;;;;;12.17;9.63;;;26.30;74.30;;;;;;5025935;28;20251;-96
2022/08/19 11:12:27;;;;;;;13.97;10.13;;;26.40;74.10;;;;;;5022778;28;20255;-96
2022/08/19 11:15:05;;;;;;;16.37;10.30;;;26.40;74.40;;;;;;5023075;28;20240;-95
2022/08/19 11:17:35;;;;;;;13.53;9.00;;;26.50;74.20;;;;;;5015128;28;20200;-95
2022/08/19 11:20:15;;;;;;;11.07;7.87;;;26.50;73.80;;;;;;5027371;28;20198;-95
2022/08/19 11:22:44;;;;;;;10.90;7.93;;;26.60;72.70;;;;;;5017398;28;20236;-95
2022/08/19 11:25:13;;;;;;;11.90;8.03;;;26.60;73.50;;;;;;5021242;28;20209;-94
2022/08/19 11:27:43;;;;;;;9.17;6.03;;;26.70;73.50;;;;;;5017936;28;20201;-94
2022/08/19 11:30:16;;;;;;;9.13;6.37;;;26.80;73.20;;;;;;5015275;28;20201;-94
2022/08/19 11:32:44;;;;;;;7.73;4.90;;;26.80;72.60;;;;;;5023214;28;20201;-95
2022/08/19 11:35:13;;;;;;;7.33;4.53;;;26.80;72.70;;;;;;5030027;28;20208;-92
2022/08/19 11:38:03;;;;;;;5.60;4.03;;;26.90;72.70;;;;;;5033765;28;20206;-96
2022/08/19 11:40:41;;;;;;;5.70;4.00;;;26.90;72.20;;;;;;5033929;28;20201;-96
2022/08/19 11:43:09;;;;;;;8.03;4.73;;;27.00;72.40;;;;;;5023944;28;20201;-95
2022/08/19 11:45:37;;;;;;;8.83;5.07;;;27.00;72.40;;;;;;5012626;28;20205;-95
2022/08/19 11:48:04;;;;;;;8.07;4.73;;;27.00;72.20;;;;;;5012282;28;20259;-95
2022/08/19 11:50:31;;;;;;;8.97;4.07;;;27.00;72.80;;;;;;5010568;28;20209;-94
2022/08/19 11:53:03;;;;;;;8.03;4.17;;;27.00;72.80;;;;;;5014581;28;20261;-93
2022/08/19 11:55:42;;;;;;;4.97;3.20;;;27.10;72.80;;;;;;5008091;28;21131;-96
2022/08/19 11:58:28;;;;;;;12.27;5.17;;;27.10;72.80;;;;;;5026755;28;20285;-95
2022/08/19 12:01:22;;;;;;;10.03;4.50;;;27.10;73.40;;;;;;5018279;28;20205;-95
2022/08/19 12:04:10;;;;;;;6.93;4.43;;;27.10;74.50;;;;;;5031255;28;20213;-96
2022/08/19 12:06:41;;;;;;;7.50;4.53;;;27.10;74.50;;;;;;5038067;28;20197;-96
2022/08/19 12:12:26;;;;;;;8.30;5.10;;;26.90;76.50;;;;;;5200397;22;20246;-95
2022/08/19 12:18:16;;;;;;;7.03;4.47;;;26.90;76.90;;;;;;5019650;28;20212;-96
2022/08/19 12:23:37;;;;;;;6.33;4.63;;;26.80;76.80;;;;;;5019349;28;20201;-95
2022/08/19 12:26:06;;;;;;;6.93;4.87;;;26.70;76.80;;;;;;5033283;28;20201;-96
2022/08/19 12:29:09;;;;;;;4.73;3.97;;;26.70;77.10;;;;;;5032998;28;20229;-96
2022/08/19 12:31:53;;;;;;;8.30;4.87;;;26.60;77.70;;;;;;5030876;28;20209;-96
2022/08/19 12:34:29;;;;;;;7.83;5.30;;;26.50;78.10;;;;;;5031306;28;20204;-95
2022/08/19 12:37:06;;;;;;;9.60;5.23;;;26.40;78.00;;;;;;5033399;28;20281;-96
2022/08/19 12:42:49;;;;;;;6.03;4.27;;;26.30;79.80;;;;;;5032188;28;20257;-96
2022/08/19 12:45:25;;;;;;;5.50;4.77;;;26.30;80.50;;;;;;5029372;28;20208;-96
2022/08/19 12:47:59;;;;;;;7.27;5.03;;;26.20;82.30;;;;;;5026070;28;20264;-96
2022/08/19 12:50:26;;;;;;;6.50;4.90;;;26.20;82.40;;;;;;5023686;28;20253;-96
2022/08/19 12:52:54;;;;;;;10.50;5.33;;;26.20;81.50;;;;;;5010607;28;20251;-95
2022/08/19 12:55:27;;;;;;;8.77;4.77;;;26.20;81.60;;;;;;5005985;28;20198;-96
2022/08/19 12:57:55;;;;;;;8.10;3.87;;;26.20;81.80;;;;;;5024736;28;20209;-95
2022/08/19 13:00:25;;;;;;;6.93;3.93;;;26.20;80.90;;;;;;5024051;28;20242;-95
2022/08/19 13:02:55;;;;;;;6.60;3.63;;;26.10;80.90;;;;;;5020952;28;20256;-95
2022/08/19 13:05:44;;;;;;;4.63;2.93;;;26.10;80.60;;;;;;5026070;28;20224;-94
2022/08/19 13:08:34;;;;;;;5.63;3.30;;;26.10;81.60;;;;;;5022006;28;20244;-96
2022/08/19 13:11:14;;;;;;;7.23;3.93;;;26.10;82.00;;;;;;5002480;28;20597;-95
2022/08/19 13:13:43;;;;;;;6.20;3.53;;;26.10;84.60;;;;;;5002683;28;20279;-95
2022/08/19 13:16:15;;;;;;;8.27;4.20;;;26.10;84.90;;;;;;5013622;28;20201;-96
2022/08/19 13:19:04;;;;;;;7.47;4.00;;;26.20;86.20;;;;;;5024254;28;20708;-95
2022/08/19 13:21:51;;;;;;;8.47;3.47;;;26.20;86.00;;;;;;5021562;28;20207;-96
2022/08/19 13:24:20;;;;;;;7.53;3.40;;;26.20;84.80;;;;;;5021498;28;20811;-93
2022/08/19 13:26:47;;;;;;;7.20;3.53;;;26.30;85.00;;;;;;5021278;28;20228;-96
2022/08/19 13:34:47;;;;;;;5.90;3.13;;;26.40;84.00;;;;;;5018511;28;20676;-95
2022/08/19 13:37:40;;;;;;;7.13;3.53;;;26.40;84.10;;;;;;5019231;28;20232;-96
2022/08/19 13:40:04;;;;;;;7.90;3.47;;;26.50;84.50;;;;;;5014746;28;20312;-96
2022/08/19 13:42:33;;;;;;;10.47;4.37;;;26.60;85.70;;;;;;5015517;28;20205;-95
2022/08/19 13:45:00;;;;;;;11.70;4.23;;;26.60;86.10;;;;;;5017270;28;20713;-96
2022/08/19 13:47:32;;;;;;;8.63;3.73;;;26.70;86.10;;;;;;5016680;28;20233;-95
2022/08/19 13:49:59;;;;;;;8.53;3.93;;;26.80;85.20;;;;;;5017162;28;20271;-95
2022/08/19 13:54:58;;;;;;;7.90;3.50;;;27.10;85.20;;;;;;5055967;22;20243;-95
2022/08/19 14:01:04;;;;;;;10.40;4.20;;;27.40;84.10;;;;;;5031705;28;20287;-96
2022/08/19 14:03:34;;;;;;;9.77;3.80;;;27.60;80.20;;;;;;5036248;28;20209;-95
2022/08/19 14:08:48;;;;;;;7.43;3.40;;;28.00;77.00;;;;;;5018860;28;20229;-96
2022/08/19 14:11:16;;;;;;;7.57;3.37;;;28.10;77.50;;;;;;5020557;28;20225;-96
2022/08/19 14:13:44;;;;;;;9.97;4.30;;;28.30;76.20;;;;;;5022582;28;20203;-92
2022/08/19 14:16:14;;;;;;;9.57;3.97;;;28.40;75.10;;;;;;5030742;28;20210;-94
2022/08/19 14:18:46;;;;;;;5.70;3.50;;;28.50;73.60;;;;;;5022893;28;20217;-93
2022/08/19 14:21:22;;;;;;;7.37;3.97;;;28.50;72.40;;;;;;5021969;28;20236;-94
2022/08/19 14:23:55;;;;;;;5.60;3.13;;;28.70;72.40;;;;;;5021408;28;20205;-95
2022/08/19 14:26:24;;;;;;;6.60;3.00;;;28.70;71.50;;;;;;5020113;28;20204;-96
2022/08/19 14:28:56;;;;;;;8.70;4.73;;;28.80;70.40;;;;;;5021040;28;20252;-95
2022/08/19 14:31:24;;;;;;;8.53;3.47;;;28.90;71.10;;;;;;5020382;28;20201;-96
2022/08/19 14:37:00;;;;;;;5.67;2.67;;;29.10;68.00;;;;;;5026791;28;20279;-96
2022/08/19 14:39:28;;;;;;;4.23;2.03;;;29.20;68.90;;;;;;5024107;28;20221;-95
2022/08/19 14:41:58;;;;;;;4.90;2.47;;;29.30;68.20;;;;;;5018353;28;20562;-96
2022/08/19 14:44:27;;;;;;;4.97;2.13;;;29.30;68.20;;;;;;5018159;28;20208;-95
2022/08/19 14:46:57;;;;;;;5.60;2.60;;;29.30;67.20;;;;;;5020360;28;20209;-96
2022/08/19 14:49:31;;;;;;;5.40;2.53;;;29.40;66.30;;;;;;5017063;28;20226;-95
2022/08/19 14:51:59;;;;;;;8.53;4.03;;;29.40;65.70;;;;;;5014530;28;20201;-94
2022/08/19 14:54:26;;;;;;;4.93;2.40;;;29.40;66.20;;;;;;5014886;28;20212;-95
2022/08/19 14:56:56;;;;;;;5.17;2.57;;;29.40;66.50;;;;;;5015659;28;20224;-96
2022/08/19 14:59:24;;;;;;;8.93;3.23;;;29.40;65.70;;;;;;5020199;28;20216;-95
2022/08/19 15:01:51;;;;;;;9.03;3.17;;;29.30;66.40;;;;;;5014077;28;20293;-96
2022/08/19 15:04:19;;;;;;;7.13;3.33;;;29.30;66.00;;;;;;5007498;28;20352;-96
2022/08/19 15:06:50;;;;;;;7.57;3.07;;;29.30;65.80;;;;;;5012912;28;20242;-95
2022/08/19 15:09:19;;;;;;;9.73;3.83;;;29.30;66.00;;;;;;5011066;28;20273;-96
2022/08/19 15:11:46;;;;;;;8.17;3.10;;;29.30;66.00;;;;;;5011873;28;20209;-96
2022/08/19 15:14:15;;;;;;;5.57;2.30;;;29.30;66.20;;;;;;5016672;28;20212;-96
2022/08/19 15:17:08;;;;;;;11.03;4.30;;;29.30;65.90;;;;;;5016306;28;20248;-95